sensor_id;sensor_type;location;lat;lon;timestamp;pressure;altitude;pressure_sealevel;temperature;humidity
11335;BME280;5722;42.620;23.374;2023-06-14T00:00:17;93784.03;;;16.72;100.00
11335;BME280;5722;42.620;23.374;2023-06-14T00:02:46;93799.69;;;16.89;100.00
11335;BME280;5722;42.620;23.374;2023-06-14T00:05:15;93790.41;;;16.86;100.00
11335;BME280;5722;42.620;23.374;2023-06-14T00:07:42;93785.34;;;16.80;100.00
11335;BME280;5722;42.620;23.374;2023-06-14T00:10:10;93780.03;;;16.85;100.00
11335;BME280;5722;42.620;23.374;2023-06-14T00:12:40;93791.72;;;16.89;100.00
11335;BME280;5722;42.620;23.374;2023-06-14T00:15:09;93705.81;;;16.42;100.00
11335;BME280;5722;42.620;23.374;2023-06-14T00:17:39;93796.75;;;16.95;100.00
11335;BME280;5722;42.620;23.374;2023-06-14T00:20:09;93766.19;;;16.78;100.00
11335;BME280;5722;42.620;23.374;2023-06-14T00:22:36;93787.44;;;17.03;100.00
11335;BME280;5722;42.620;23.374;2023-06-14T00:25:05;93767.47;;;16.90;100.00
11335;BME280;5722;42.620;23.374;2023-06-14T00:27:32;93764.59;;;16.77;100.00
11335;BME280;5722;42.620;23.374;2023-06-14T00:30:00;93781.06;;;16.84;100.00
11335;BME280;5722;42.620;23.374;2023-06-14T00:32:29;93693.59;;;16.26;100.00
11335;BME280;5722;42.620;23.374;2023-06-14T00:34:57;93675.53;;;16.18;100.00
11335;BME280;5722;42.620;23.374;2023-06-14T00:37:24;93780.00;;;16.90;100.00
11335;BME280;5722;42.620;23.374;2023-06-14T00:39:51;93774.69;;;16.90;100.00
11335;BME280;5722;42.620;23.374;2023-06-14T00:42:25;93777.59;;;16.88;100.00
11335;BME280;5722;42.620;23.374;2023-06-14T00:44:52;93778.97;;;16.76;100.00
11335;BME280;5722;42.620;23.374;2023-06-14T00:47:20;93717.78;;;16.20;100.00
11335;BME280;5722;42.620;23.374;2023-06-14T00:49:48;93771.78;;;16.71;100.00
11335;BME280;5722;42.620;23.374;2023-06-14T00:52:18;93799.47;;;16.75;100.00
11335;BME280;5722;42.620;23.374;2023-06-14T00:54:46;93774.44;;;16.76;100.00
11335;BME280;5722;42.620;23.374;2023-06-14T00:57:14;93772.56;;;16.77;100.00
11335;BME280;5722;42.620;23.374;2023-06-14T00:59:44;93711.41;;;16.41;100.00
11335;BME280;5722;42.620;23.374;2023-06-14T01:02:12;93783.75;;;16.79;100.00
11335;BME280;5722;42.620;23.374;2023-06-14T01:04:43;93601.94;;;15.73;100.00
11335;BME280;5722;42.620;23.374;2023-06-14T01:07:18;93763.78;;;16.76;100.00
11335;BME280;5722;42.620;23.374;2023-06-14T01:10:00;93739.03;;;16.60;100.00
11335;BME280;5722;42.620;23.374;2023-06-14T01:12:36;93739.31;;;16.59;100.00
11335;BME280;5722;42.620;23.374;2023-06-14T01:15:07;93769.91;;;16.77;100.00
11335;BME280;5722;42.620;23.374;2023-06-14T01:17:35;93765.13;;;16.73;100.00
11335;BME280;5722;42.620;23.374;2023-06-14T01:20:10;93774.44;;;16.76;100.00
11335;BME280;5722;42.620;23.374;2023-06-14T01:22:50;93783.22;;;16.77;100.00
11335;BME280;5722;42.620;23.374;2023-06-14T01:25:17;93774.16;;;16.78;100.00
11335;BME280;5722;42.620;23.374;2023-06-14T01:27:47;93780.00;;;16.80;100.00
11335;BME280;5722;42.620;23.374;2023-06-14T01:30:17;93767.50;;;16.80;100.00
11335;BME280;5722;42.620;23.374;2023-06-14T01:32:45;93743.81;;;16.63;100.00
11335;BME280;5722;42.620;23.374;2023-06-14T01:35:13;93768.84;;;16.62;100.00
11335;BME280;5722;42.620;23.374;2023-06-14T01:37:42;93800.50;;;16.64;100.00
11335;BME280;5722;42.620;23.374;2023-06-14T01:40:12;93768.03;;;16.62;100.00
11335;BME280;5722;42.620;23.374;2023-06-14T01:42:41;93771.50;;;16.57;100.00
11335;BME280;5722;42.620;23.374;2023-06-14T01:45:10;93769.38;;;16.59;100.00
11335;BME280;5722;42.620;23.374;2023-06-14T01:47:38;93734.28;;;16.37;100.00
11335;BME280;5722;42.620;23.374;2023-06-14T01:50:07;93760.88;;;16.57;100.00
11335;BME280;5722;42.620;23.374;2023-06-14T01:52:36;93755.56;;;16.47;100.00
11335;BME280;5722;42.620;23.374;2023-06-14T01:55:04;93767.78;;;16.33;100.00
11335;BME280;5722;42.620;23.374;2023-06-14T01:57:36;93675.78;;;15.76;100.00
11335;BME280;5722;42.620;23.374;2023-06-14T02:00:04;93766.22;;;16.17;100.00
11335;BME280;5722;42.620;23.374;2023-06-14T02:02:38;93764.59;;;15.95;100.00
11335;BME280;5722;42.620;23.374;2023-06-14T02:05:06;93774.69;;;15.83;100.00
11335;BME280;5722;42.620;23.374;2023-06-14T02:07:34;93772.56;;;15.85;100.00
11335;BME280;5722;42.620;23.374;2023-06-14T02:10:02;93783.72;;;15.82;100.00
11335;BME280;5722;42.620;23.374;2023-06-14T02:12:29;93772.19;;;15.56;100.00
11335;BME280;5722;42.620;23.374;2023-06-14T02:14:58;93774.94;;;15.81;100.00
11335;BME280;5722;42.620;23.374;2023-06-14T02:17:26;93751.81;;;15.67;100.00
11335;BME280;5722;42.620;23.374;2023-06-14T02:19:54;93791.69;;;15.92;100.00
11335;BME280;5722;42.620;23.374;2023-06-14T02:22:21;93811.66;;;16.00;100.00
11335;BME280;5722;42.620;23.374;2023-06-14T02:24:48;93773.88;;;15.93;100.00
11335;BME280;5722;42.620;23.374;2023-06-14T02:27:15;93704.44;;;15.59;100.00
11335;BME280;5722;42.620;23.374;2023-06-14T02:29:43;93767.25;;;16.00;100.00
11335;BME280;5722;42.620;23.374;2023-06-14T02:32:12;93787.47;;;16.17;100.00
11335;BME280;5722;42.620;23.374;2023-06-14T02:34:40;93790.13;;;16.22;100.00
11335;BME280;5722;42.620;23.374;2023-06-14T02:37:07;93792.78;;;16.22;100.00
11335;BME280;5722;42.620;23.374;2023-06-14T02:39:35;93692.78;;;15.49;100.00
11335;BME280;5722;42.620;23.374;2023-06-14T02:42:02;93786.41;;;16.18;100.00
11335;BME280;5722;42.620;23.374;2023-06-14T02:44:29;93791.22;;;16.26;100.00
11335;BME280;5722;42.620;23.374;2023-06-14T02:46:57;93767.00;;;16.12;100.00
11335;BME280;5722;42.620;23.374;2023-06-14T02:49:28;93763.00;;;16.04;100.00
11335;BME280;5722;42.620;23.374;2023-06-14T02:52:01;93792.00;;;16.31;100.00
11335;BME280;5722;42.620;23.374;2023-06-14T02:54:32;93735.63;;;15.94;100.00
11335;BME280;5722;42.620;23.374;2023-06-14T02:57:07;93803.97;;;16.24;100.00
11335;BME280;5722;42.620;23.374;2023-06-14T02:59:36;93686.09;;;15.42;100.00
11335;BME280;5722;42.620;23.374;2023-06-14T03:02:04;93807.16;;;16.36;100.00
11335;BME280;5722;42.620;23.374;2023-06-14T03:04:35;93806.66;;;16.39;100.00
11335;BME280;5722;42.620;23.374;2023-06-14T03:07:04;93801.31;;;16.49;100.00
11335;BME280;5722;42.620;23.374;2023-06-14T03:09:35;93813.81;;;16.54;100.00
11335;BME280;5722;42.620;23.374;2023-06-14T03:12:07;93806.34;;;16.51;100.00
11335;BME280;5722;42.620;23.374;2023-06-14T03:14:35;93811.16;;;16.43;100.00
11335;BME280;5722;42.620;23.374;2023-06-14T03:17:03;93787.75;;;16.25;100.00
11335;BME280;5722;42.620;23.374;2023-06-14T03:19:39;93806.66;;;16.39;100.00
11335;BME280;5722;42.620;23.374;2023-06-14T03:22:30;93822.06;;;16.42;100.00
11335;BME280;5722;42.620;23.374;2023-06-14T03:24:58;93812.75;;;16.34;100.00
11335;BME280;5722;42.620;23.374;2023-06-14T03:27:27;93798.66;;;16.34;100.00
11335;BME280;5722;42.620;23.374;2023-06-14T03:30:01;93742.53;;;15.95;100.00
11335;BME280;5722;42.620;23.374;2023-06-14T03:32:29;93815.94;;;16.52;100.00
11335;BME280;5722;42.620;23.374;2023-06-14T03:35:00;93816.75;;;16.62;100.00
11335;BME280;5722;42.620;23.374;2023-06-14T03:37:27;93646.84;;;15.64;100.00
11335;BME280;5722;42.620;23.374;2023-06-14T03:39:54;93814.34;;;16.66;100.00
11335;BME280;5722;42.620;23.374;2023-06-14T03:42:22;93814.88;;;16.68;100.00
11335;BME280;5722;42.620;23.374;2023-06-14T03:44:59;93776.84;;;16.32;100.00
11335;BME280;5722;42.620;23.374;2023-06-14T03:47:27;93725.78;;;16.30;100.00
11335;BME280;5722;42.620;23.374;2023-06-14T03:49:54;93799.16;;;16.82;100.00
11335;BME280;5722;42.620;23.374;2023-06-14T03:52:23;93816.72;;;16.98;100.00
11335;BME280;5722;42.620;23.374;2023-06-14T03:54:50;93781.84;;;16.84;100.00
11335;BME280;5722;42.620;23.374;2023-06-14T03:57:18;93672.88;;;16.13;100.00
11335;BME280;5722;42.620;23.374;2023-06-14T03:59:46;93812.13;;;17.14;100.00
11335;BME280;5722;42.620;23.374;2023-06-14T04:02:26;93807.66;;;16.94;100.00
11335;BME280;5722;42.620;23.374;2023-06-14T04:04:54;93714.06;;;16.36;100.00
11335;BME280;5722;42.620;23.374;2023-06-14T04:07:24;93831.09;;;17.02;100.00
11335;BME280;5722;42.620;23.374;2023-06-14T04:09:54;93826.56;;;17.08;100.00
11335;BME280;5722;42.620;23.374;2023-06-14T04:12:22;93817.47;;;17.19;100.00
11335;BME280;5722;42.620;23.374;2023-06-14T04:14:50;93818.78;;;17.31;100.00
11335;BME280;5722;42.620;23.374;2023-06-14T04:17:18;93832.09;;;17.31;100.00
11335;BME280;5722;42.620;23.374;2023-06-14T04:19:45;93806.25;;;17.32;100.00
11335;BME280;5722;42.620;23.374;2023-06-14T04:22:13;93795.59;;;17.32;100.00
11335;BME280;5722;42.620;23.374;2023-06-14T04:24:43;93800.13;;;17.31;100.00
11335;BME280;5722;42.620;23.374;2023-06-14T04:27:11;93819.19;;;17.59;100.00
11335;BME280;5722;42.620;23.374;2023-06-14T04:29:40;93820.25;;;17.63;100.00
11335;BME280;5722;42.620;23.374;2023-06-14T04:32:09;93823.16;;;17.77;100.00
11335;BME280;5722;42.620;23.374;2023-06-14T04:34:39;93809.53;;;17.73;100.00
11335;BME280;5722;42.620;23.374;2023-06-14T04:37:07;93820.66;;;17.90;100.00
11335;BME280;5722;42.620;23.374;2023-06-14T04:39:35;93814.22;;;17.97;100.00
11335;BME280;5722;42.620;23.374;2023-06-14T04:42:05;93826.16;;;18.09;100.00
11335;BME280;5722;42.620;23.374;2023-06-14T04:44:32;93817.38;;;18.09;100.00
11335;BME280;5722;42.620;23.374;2023-06-14T04:47:00;93822.00;;;18.32;100.00
11335;BME280;5722;42.620;23.374;2023-06-14T04:49:27;93815.84;;;18.32;100.00
11335;BME280;5722;42.620;23.374;2023-06-14T04:51:56;93802.69;;;18.45;100.00
11335;BME280;5722;42.620;23.374;2023-06-14T04:54:28;93816.81;;;18.80;100.00
11335;BME280;5722;42.620;23.374;2023-06-14T04:56:57;93833.28;;;18.92;100.00
11335;BME280;5722;42.620;23.374;2023-06-14T04:59:26;93830.97;;;19.09;100.00
11335;BME280;5722;42.620;23.374;2023-06-14T05:01:53;93817.75;;;18.94;100.00
11335;BME280;5722;42.620;23.374;2023-06-14T05:04:22;93830.53;;;19.02;100.00
11335;BME280;5722;42.620;23.374;2023-06-14T05:06:52;93818.84;;;18.93;100.00
11335;BME280;5722;42.620;23.374;2023-06-14T05:09:20;93812.91;;;19.01;100.00
11335;BME280;5722;42.620;23.374;2023-06-14T05:11:50;93835.03;;;19.31;100.00
11335;BME280;5722;42.620;23.374;2023-06-14T05:14:17;93823.88;;;19.24;100.00
11335;BME280;5722;42.620;23.374;2023-06-14T05:16:45;93824.63;;;19.29;100.00
11335;BME280;5722;42.620;23.374;2023-06-14T05:19:14;93834.09;;;19.46;100.00
11335;BME280;5722;42.620;23.374;2023-06-14T05:21:46;93833.72;;;19.52;100.00
11335;BME280;5722;42.620;23.374;2023-06-14T05:24:19;93838.63;;;19.69;100.00
11335;BME280;5722;42.620;23.374;2023-06-14T05:26:50;93702.81;;;19.04;100.00
11335;BME280;5722;42.620;23.374;2023-06-14T05:29:17;93604.28;;;18.55;100.00
11335;BME280;5722;42.620;23.374;2023-06-14T05:31:52;93820.31;;;19.57;100.00
11335;BME280;5722;42.620;23.374;2023-06-14T05:34:29;93853.88;;;19.92;100.00
11335;BME280;5722;42.620;23.374;2023-06-14T05:36:58;93840.09;;;19.80;100.00
11335;BME280;5722;42.620;23.374;2023-06-14T05:39:35;93864.72;;;20.01;100.00
11335;BME280;5722;42.620;23.374;2023-06-14T05:42:14;93858.78;;;20.04;100.00
11335;BME280;5722;42.620;23.374;2023-06-14T05:44:46;93852.50;;;20.33;100.00
11335;BME280;5722;42.620;23.374;2023-06-14T05:47:20;93858.53;;;20.43;100.00
11335;BME280;5722;42.620;23.374;2023-06-14T05:49:48;93855.06;;;20.62;100.00
11335;BME280;5722;42.620;23.374;2023-06-14T05:52:18;93767.00;;;20.04;100.00
11335;BME280;5722;42.620;23.374;2023-06-14T05:54:47;93833.13;;;20.41;100.00
11335;BME280;5722;42.620;23.374;2023-06-14T05:57:23;93860.81;;;20.87;100.00
11335;BME280;5722;42.620;23.374;2023-06-14T05:59:55;93839.28;;;20.60;100.00
11335;BME280;5722;42.620;23.374;2023-06-14T06:05:37;93858.63;;;20.89;100.00
11335;BME280;5722;42.620;23.374;2023-06-14T06:08:06;93819.38;;;20.28;100.00
11335;BME280;5722;42.620;23.374;2023-06-14T06:10:48;93613.56;;;19.43;100.00
11335;BME280;5722;42.620;23.374;2023-06-14T06:13:21;93824.03;;;20.23;100.00
11335;BME280;5722;42.620;23.374;2023-06-14T06:15:50;93864.81;;;20.71;100.00
11335;BME280;5722;42.620;23.374;2023-06-14T06:18:28;93851.22;;;20.49;100.00
11335;BME280;5722;42.620;23.374;2023-06-14T06:21:15;93874.94;;;20.74;100.00
11335;BME280;5722;42.620;23.374;2023-06-14T06:23:46;93868.00;;;20.73;100.00
11335;BME280;5722;42.620;23.374;2023-06-14T06:26:19;93688.34;;;19.48;100.00
11335;BME280;5722;42.620;23.374;2023-06-14T06:29:12;93812.84;;;20.35;100.00
11335;BME280;5722;42.620;23.374;2023-06-14T06:31:49;93879.97;;;20.43;100.00
11335;BME280;5722;42.620;23.374;2023-06-14T06:34:27;93890.41;;;20.21;100.00
11335;BME280;5722;42.620;23.374;2023-06-14T06:37:01;93909.50;;;20.14;100.00
11335;BME280;5722;42.620;23.374;2023-06-14T06:39:45;93766.69;;;19.25;100.00
11335;BME280;5722;42.620;23.374;2023-06-14T06:42:33;93845.88;;;19.87;100.00
11335;BME280;5722;42.620;23.374;2023-06-14T06:45:14;93785.72;;;19.42;100.00
11335;BME280;5722;42.620;23.374;2023-06-14T06:47:43;93893.38;;;20.19;100.00
11335;BME280;5722;42.620;23.374;2023-06-14T06:50:23;93898.00;;;20.33;100.00
11335;BME280;5722;42.620;23.374;2023-06-14T06:53:09;93898.59;;;20.29;100.00
11335;BME280;5722;42.620;23.374;2023-06-14T06:55:40;93890.28;;;20.50;100.00
11335;BME280;5722;42.620;23.374;2023-06-14T06:58:33;93901.38;;;20.43;100.00
11335;BME280;5722;42.620;23.374;2023-06-14T07:01:11;93914.91;;;20.52;100.00
11335;BME280;5722;42.620;23.374;2023-06-14T07:03:44;93835.72;;;20.27;100.00
11335;BME280;5722;42.620;23.374;2023-06-14T07:06:31;93848.63;;;20.44;100.00
11335;BME280;5722;42.620;23.374;2023-06-14T07:09:26;93911.56;;;20.79;100.00
11335;BME280;5722;42.620;23.374;2023-06-14T07:11:55;93857.94;;;20.65;100.00
11335;BME280;5722;42.620;23.374;2023-06-14T07:14:29;93891.13;;;21.02;100.00
11335;BME280;5722;42.620;23.374;2023-06-14T07:17:07;93881.06;;;20.94;100.00
11335;BME280;5722;42.620;23.374;2023-06-14T07:19:39;93864.72;;;20.76;100.00
11335;BME280;5722;42.620;23.374;2023-06-14T07:33:18;93876.06;;;21.93;100.00
11335;BME280;5722;42.620;23.374;2023-06-14T07:35:48;93743.63;;;21.07;100.00
11335;BME280;5722;42.620;23.374;2023-06-14T07:38:17;93879.81;;;22.20;100.00
11335;BME280;5722;42.620;23.374;2023-06-14T07:40:57;93842.34;;;22.15;100.00
11335;BME280;5722;42.620;23.374;2023-06-14T07:43:32;93799.72;;;22.13;100.00
11335;BME280;5722;42.620;23.374;2023-06-14T07:46:34;93873.63;;;22.83;100.00
11335;BME280;5722;42.620;23.374;2023-06-14T07:49:20;93838.94;;;22.59;100.00
11335;BME280;5722;42.620;23.374;2023-06-14T07:52:06;93880.34;;;22.94;100.00
11335;BME280;5722;42.620;23.374;2023-06-14T07:54:52;93885.78;;;23.03;100.00
11335;BME280;5722;42.620;23.374;2023-06-14T07:57:45;93902.44;;;22.91;100.00
11335;BME280;5722;42.620;23.374;2023-06-14T08:00:36;93827.34;;;22.14;100.00
11335;BME280;5722;42.620;23.374;2023-06-14T08:03:12;93880.97;;;22.55;100.00
11335;BME280;5722;42.620;23.374;2023-06-14T08:05:57;93897.41;;;22.76;100.00
11335;BME280;5722;42.620;23.374;2023-06-14T08:08:26;93896.66;;;22.61;100.00
11335;BME280;5722;42.620;23.374;2023-06-14T08:10:57;93880.69;;;22.43;100.00
11335;BME280;5722;42.620;23.374;2023-06-14T08:13:29;93887.63;;;22.57;100.00
11335;BME280;5722;42.620;23.374;2023-06-14T08:16:00;93878.81;;;22.65;100.00
11335;BME280;5722;42.620;23.374;2023-06-14T08:18:36;93906.59;;;22.97;100.00
11335;BME280;5722;42.620;23.374;2023-06-14T08:21:21;93876.94;;;23.33;100.00
11335;BME280;5722;42.620;23.374;2023-06-14T08:23:55;61999.44;;;-143.45;100.00
11335;BME280;5722;42.620;23.374;2023-06-14T08:26:39;61999.44;;;-143.45;100.00
11335;BME280;5722;42.620;23.374;2023-06-14T08:29:12;61999.44;;;-143.45;100.00
11335;BME280;5722;42.620;23.374;2023-06-14T08:31:49;61999.44;;;-143.45;100.00
11335;BME280;5722;42.620;23.374;2023-06-14T08:34:18;61999.44;;;-143.45;100.00
11335;BME280;5722;42.620;23.374;2023-06-14T08:37:03;61999.44;;;-143.45;100.00
11335;BME280;5722;42.620;23.374;2023-06-14T08:39:31;61999.44;;;-143.45;100.00
11335;BME280;5722;42.620;23.374;2023-06-14T08:42:06;61999.44;;;-143.45;100.00
11335;BME280;5722;42.620;23.374;2023-06-14T08:44:38;61999.44;;;-143.45;100.00
11335;BME280;5722;42.620;23.374;2023-06-14T08:47:08;61999.44;;;-143.45;100.00
11335;BME280;5722;42.620;23.374;2023-06-14T08:49:47;61999.44;;;-143.45;100.00
11335;BME280;5722;42.620;23.374;2023-06-14T08:52:39;61999.44;;;-143.45;100.00
11335;BME280;5722;42.620;23.374;2023-06-14T08:55:13;61999.44;;;-143.45;100.00
11335;BME280;5722;42.620;23.374;2023-06-14T08:57:42;61999.44;;;-143.45;100.00
11335;BME280;5722;42.620;23.374;2023-06-14T09:00:28;61999.44;;;-143.45;100.00
11335;BME280;5722;42.620;23.374;2023-06-14T09:02:57;61999.44;;;-143.45;100.00
11335;BME280;5722;42.620;23.374;2023-06-14T09:05:47;61999.44;;;-143.45;100.00
11335;BME280;5722;42.620;23.374;2023-06-14T09:08:21;61999.44;;;-143.45;100.00
11335;BME280;5722;42.620;23.374;2023-06-14T09:10:53;61999.44;;;-143.45;100.00
11335;BME280;5722;42.620;23.374;2023-06-14T09:13:30;61999.44;;;-143.45;100.00
11335;BME280;5722;42.620;23.374;2023-06-14T09:16:15;61999.44;;;-143.45;100.00
11335;BME280;5722;42.620;23.374;2023-06-14T09:18:49;61999.44;;;-143.45;100.00
11335;BME280;5722;42.620;23.374;2023-06-14T09:21:43;61999.44;;;-143.45;100.00
11335;BME280;5722;42.620;23.374;2023-06-14T09:24:36;61999.44;;;-143.45;100.00
11335;BME280;5722;42.620;23.374;2023-06-14T09:27:27;61999.44;;;-143.45;100.00
11335;BME280;5722;42.620;23.374;2023-06-14T09:30:17;61999.44;;;-143.45;100.00
11335;BME280;5722;42.620;23.374;2023-06-14T09:32:54;61999.44;;;-143.45;100.00
11335;BME280;5722;42.620;23.374;2023-06-14T09:35:27;61999.44;;;-143.45;100.00
11335;BME280;5722;42.620;23.374;2023-06-14T09:38:20;61999.44;;;-143.45;100.00
11335;BME280;5722;42.620;23.374;2023-06-14T09:41:14;61999.44;;;-143.45;100.00
11335;BME280;5722;42.620;23.374;2023-06-14T09:43:46;61999.44;;;-143.45;100.00
11335;BME280;5722;42.620;23.374;2023-06-14T09:46:51;61999.44;;;-143.45;100.00
11335;BME280;5722;42.620;23.374;2023-06-14T09:49:25;61999.44;;;-143.45;100.00
11335;BME280;5722;42.620;23.374;2023-06-14T09:52:08;61999.44;;;-143.45;100.00
11335;BME280;5722;42.620;23.374;2023-06-14T09:54:57;61999.44;;;-143.45;100.00
11335;BME280;5722;42.620;23.374;2023-06-14T09:57:46;61999.44;;;-143.45;100.00
11335;BME280;5722;42.620;23.374;2023-06-14T10:00:19;61999.44;;;-143.45;100.00
11335;BME280;5722;42.620;23.374;2023-06-14T10:03:03;61999.44;;;-143.45;100.00
11335;BME280;5722;42.620;23.374;2023-06-14T10:05:55;61999.44;;;-143.45;100.00
11335;BME280;5722;42.620;23.374;2023-06-14T10:08:30;61999.44;;;-143.45;100.00
11335;BME280;5722;42.620;23.374;2023-06-14T10:14:03;61999.44;;;-143.45;100.00
11335;BME280;5722;42.620;23.374;2023-06-14T10:17:00;61999.44;;;-143.45;100.00
11335;BME280;5722;42.620;23.374;2023-06-14T10:19:54;61999.44;;;-143.45;100.00
11335;BME280;5722;42.620;23.374;2023-06-14T10:22:35;61999.44;;;-143.45;100.00
11335;BME280;5722;42.620;23.374;2023-06-14T10:25:13;61999.44;;;-143.45;100.00
11335;BME280;5722;42.620;23.374;2023-06-14T10:34:39;61999.44;;;-143.45;100.00
11335;BME280;5722;42.620;23.374;2023-06-14T10:37:38;61999.44;;;-143.45;100.00
11335;BME280;5722;42.620;23.374;2023-06-14T10:40:33;61999.44;;;-143.45;100.00
11335;BME280;5722;42.620;23.374;2023-06-14T10:43:20;61999.44;;;-143.45;100.00
11335;BME280;5722;42.620;23.374;2023-06-14T10:46:25;61999.44;;;-143.45;100.00
11335;BME280;5722;42.620;23.374;2023-06-14T10:49:04;61999.44;;;-143.45;100.00
11335;BME280;5722;42.620;23.374;2023-06-14T10:52:00;61999.44;;;-143.45;100.00
11335;BME280;5722;42.620;23.374;2023-06-14T10:54:32;61999.44;;;-143.45;100.00
11335;BME280;5722;42.620;23.374;2023-06-14T10:57:21;61999.44;;;-143.45;100.00
11335;BME280;5722;42.620;23.374;2023-06-14T10:59:50;61999.44;;;-143.45;100.00
11335;BME280;5722;42.620;23.374;2023-06-14T11:02:46;61999.44;;;-143.45;100.00
11335;BME280;5722;42.620;23.374;2023-06-14T11:05:27;61999.44;;;-143.45;100.00
11335;BME280;5722;42.620;23.374;2023-06-14T11:08:39;61999.44;;;-143.45;100.00
11335;BME280;5722;42.620;23.374;2023-06-14T11:11:34;61999.44;;;-143.45;100.00
11335;BME280;5722;42.620;23.374;2023-06-14T11:14:05;61999.44;;;-143.45;100.00
11335;BME280;5722;42.620;23.374;2023-06-14T11:16:36;61999.44;;;-143.45;100.00
11335;BME280;5722;42.620;23.374;2023-06-14T11:19:20;61999.44;;;-143.45;100.00
11335;BME280;5722;42.620;23.374;2023-06-14T11:21:52;61999.44;;;-143.45;100.00
11335;BME280;5722;42.620;23.374;2023-06-14T11:24:25;61999.44;;;-143.45;100.00
11335;BME280;5722;42.620;23.374;2023-06-14T11:26:58;61999.44;;;-143.45;100.00
11335;BME280;5722;42.620;23.374;2023-06-14T11:29:35;61999.44;;;-143.45;100.00
11335;BME280;5722;42.620;23.374;2023-06-14T11:32:09;61999.44;;;-143.45;100.00
11335;BME280;5722;42.620;23.374;2023-06-14T11:34:50;61999.44;;;-143.45;100.00
11335;BME280;5722;42.620;23.374;2023-06-14T11:37:32;61999.44;;;-143.45;100.00
11335;BME280;5722;42.620;23.374;2023-06-14T11:40:29;61999.44;;;-143.45;100.00
11335;BME280;5722;42.620;23.374;2023-06-14T11:43:02;61999.44;;;-143.45;100.00
11335;BME280;5722;42.620;23.374;2023-06-14T11:45:39;61999.44;;;-143.45;100.00
11335;BME280;5722;42.620;23.374;2023-06-14T11:48:10;61999.44;;;-143.45;100.00
11335;BME280;5722;42.620;23.374;2023-06-14T11:50:42;61999.44;;;-143.45;100.00
11335;BME280;5722;42.620;23.374;2023-06-14T11:53:34;61999.44;;;-143.45;100.00
11335;BME280;5722;42.620;23.374;2023-06-14T11:56:23;61999.44;;;-143.45;100.00
11335;BME280;5722;42.620;23.374;2023-06-14T11:58:59;61999.44;;;-143.45;100.00
11335;BME280;5722;42.620;23.374;2023-06-14T12:01:58;61999.44;;;-143.45;100.00
11335;BME280;5722;42.620;23.374;2023-06-14T12:04:52;61999.44;;;-143.45;100.00
11335;BME280;5722;42.620;23.374;2023-06-14T12:07:47;61999.44;;;-143.45;100.00
11335;BME280;5722;42.620;23.374;2023-06-14T12:11:19;61999.44;;;-143.45;100.00
11335;BME280;5722;42.620;23.374;2023-06-14T12:13:58;61999.44;;;-143.45;100.00
11335;BME280;5722;42.620;23.374;2023-06-14T12:16:40;61999.44;;;-143.45;100.00
11335;BME280;5722;42.620;23.374;2023-06-14T12:19:14;61999.44;;;-143.45;100.00
11335;BME280;5722;42.620;23.374;2023-06-14T12:21:46;61999.44;;;-143.45;100.00
11335;BME280;5722;42.620;23.374;2023-06-14T12:24:32;61999.44;;;-143.45;100.00
11335;BME280;5722;42.620;23.374;2023-06-14T12:27:24;61999.44;;;-143.45;100.00
11335;BME280;5722;42.620;23.374;2023-06-14T12:33:10;61999.44;;;-143.45;100.00
11335;BME280;5722;42.620;23.374;2023-06-14T12:35:37;61999.44;;;-143.45;100.00
11335;BME280;5722;42.620;23.374;2023-06-14T12:38:06;61999.44;;;-143.45;100.00
11335;BME280;5722;42.620;23.374;2023-06-14T12:41:06;61999.44;;;-143.45;100.00
11335;BME280;5722;42.620;23.374;2023-06-14T12:43:37;61999.44;;;-143.45;100.00
11335;BME280;5722;42.620;23.374;2023-06-14T12:46:33;61999.44;;;-143.45;100.00
11335;BME280;5722;42.620;23.374;2023-06-14T12:49:25;61999.44;;;-143.45;100.00
11335;BME280;5722;42.620;23.374;2023-06-14T12:51:58;61999.44;;;-143.45;100.00
11335;BME280;5722;42.620;23.374;2023-06-14T12:54:32;61999.44;;;-143.45;100.00
11335;BME280;5722;42.620;23.374;2023-06-14T12:57:07;61999.44;;;-143.45;100.00
11335;BME280;5722;42.620;23.374;2023-06-14T12:59:36;61999.44;;;-143.45;100.00
11335;BME280;5722;42.620;23.374;2023-06-14T13:02:17;61999.44;;;-143.45;100.00
11335;BME280;5722;42.620;23.374;2023-06-14T13:05:04;61999.44;;;-143.45;100.00
11335;BME280;5722;42.620;23.374;2023-06-14T13:07:37;61999.44;;;-143.45;100.00
11335;BME280;5722;42.620;23.374;2023-06-14T13:10:12;61999.44;;;-143.45;100.00
11335;BME280;5722;42.620;23.374;2023-06-14T13:12:42;61999.44;;;-143.45;100.00
11335;BME280;5722;42.620;23.374;2023-06-14T13:15:16;61999.44;;;-143.45;100.00
11335;BME280;5722;42.620;23.374;2023-06-14T13:17:45;61999.44;;;-143.45;100.00
11335;BME280;5722;42.620;23.374;2023-06-14T13:20:29;61999.44;;;-143.45;100.00
11335;BME280;5722;42.620;23.374;2023-06-14T13:23:01;61999.44;;;-143.45;100.00
11335;BME280;5722;42.620;23.374;2023-06-14T13:25:44;61999.44;;;-143.45;100.00
11335;BME280;5722;42.620;23.374;2023-06-14T13:28:14;61999.44;;;-143.45;100.00
11335;BME280;5722;42.620;23.374;2023-06-14T13:30:45;61999.44;;;-143.45;100.00
11335;BME280;5722;42.620;23.374;2023-06-14T13:33:22;61999.44;;;-143.45;100.00
11335;BME280;5722;42.620;23.374;2023-06-14T13:39:01;61999.44;;;-143.45;100.00
11335;BME280;5722;42.620;23.374;2023-06-14T13:41:39;61999.44;;;-143.45;100.00
11335;BME280;5722;42.620;23.374;2023-06-14T13:47:33;61999.44;;;-143.45;100.00
11335;BME280;5722;42.620;23.374;2023-06-14T13:50:34;61999.44;;;-143.45;100.00
11335;BME280;5722;42.620;23.374;2023-06-14T13:56:40;61999.44;;;-143.45;100.00
11335;BME280;5722;42.620;23.374;2023-06-14T14:09:40;61999.44;;;-143.45;100.00
11335;BME280;5722;42.620;23.374;2023-06-14T14:15:37;61999.44;;;-143.45;100.00